Huvudsida
METAR-TAF:

METAR-TAF

Flygplatser :

Basra International Airport

Basra, Irak

latitud: 30-32-56N, longitud: 47-39-45E, höjd: 1 m

Aktuellt väderrapport

Denna rapport gjordes för 33 minuter sedan, klockan 03:00 UTC
Vind 10 kt från väst
Temperatur 28°C
Fuktighet 45%
Tryck 1001 hPa
Sikt 10 km eller mer
Inga moln under 1 500 m eller inga cumulonimbus

METAR: ORMM 200300Z 26010KT CAVOK 28/15 Q1001 NOSIG

Tid: 06:33 (03:33 UTC)

Väderprognos

Denna rapport gjordes för 5 timmar och 33 minuter sedan, klockan 22:00 UTC
Prognos gäller från 20 kl. 00 UTC till 20 kl. 24 UTC
Vind 10 kt från väst/nordväst
Sikt 10 km eller mer
Inga moln under 1 500 m eller inga cumulonimbus
Temporärt
från 20 kl. 06 UTC till 20 kl. 20 UTC
Vind 15 kt från väst/nordväst i byarna ända upp till 25 kt
Sikt: 6000 m

TAF: ORMM 192200Z 2000/2024 30010KT CAVOK TEMPO 2006/2020 30015G25KT 6000 NSC

Aktuella väderrapporter och prognoser från 4000 flygplatser (METAR- och TAF-rapporter).

De tillgängliga stationerna syns som gula och röda prickar på kartan.

För musen över prickarna för att se namnen på stationerna.

Klicka sedan för att få väderrapporter och prognoser.

För att ändra kartan: Klicka på de gröna knapparna med ett svart kors på för att zooma in; den gröna knappen med ett streck på för att zooma ut; eller på de gröna pilarna för angränsande kartor.


METAR-TAF: